Airfield :
LOGIN :

Register | Disclaimer

   EN    FR    IT 

 










Legend :    VFR   Marginal VFR   IFR   Intensive IFR   Very Intensive IFR
Visi :
Ceiling :
>= 8 km
>= 3000ft
5 to 8 km
1000 to 3000 ft
1500m to 5 km
500 to 1000 ft
800 to 1500m
200 to 500 ft
< 800m
< 200 ft
Symbols :   Thunderstorms  Fog  Heavy snow  Heavy precipitations  Wind > 20 kt
SIGMETs :     Misc.  Thunderstorms  Icing  Turbulence  Mountain Waves  Volcanic Ashes






- Airport Elevation : 32 ft
- IATA code : LKZ


EGUL - RAF Lakenheath

CURRENT METAR :
  • 061056Z AUTO 22016G23KT 9999 -RA OVC027 09/07 A2936 RMK AO2 SLP946 P0002 T00940073 $

EXPIRED METARs :
  • 060956Z AUTO 22018G23KT 9999 RA BKN028 BKN034 09/07 A2935 RMK AO2 CIG 028V034 BKN028 V SCT CIG 026 RWY24 SLP942 P0006 T00920068 $
  • 060946Z AUTO 22014KT 9999 RA BKN031 09/06 A2935 RMK AO2 SLP942 $
  • 060941Z AUTO 22014KT 9999 RA BKN029 09/06 A2935 RMK AO2 CIG 025 RWY24 SLP942 $
  • 060856Z AUTO 22016G24KT 9999 -RA BKN031 09/06 A2935 RMK AO2 PK WND 31026/04 SLP942 P0003 60004 T00860059 51001 $

Expired Forecast.



MET'MAP, your aeronautical weather chart ! - Copyright ORBIFLY December 2007 - Disclaimer

ORBIFLY MET'MAP TEAM :

Programming & Development : Alexandra Zaïnal
Concept & original design : Baudouin d'Aumeries
Assistance for programming : Marc-Olivier Méhu
Technical & hardware support : Manuel Goepfert

Contact : metmap@orbifly.com




SOURCES & CREDITS :

   NOAA